Terminal Aerodrome Forecast
Issued by NWS

Home | Current Version | Previous Version | Text Only | Print | Product List | Glossary On
Versions: 1 2 3 4 5 6 7 8 9 10 11 12 13 14 15 16 17
000
FTUS41 KCAR 212300 RRA
TAFFVE
TAF
KFVE 212349Z 2200/2224 17009KT P6SM BKN250
     FM220200 17008KT P6SM SCT015 BKN025
     FM220400 16007KT P6SM -SHRA BKN015
     FM220600 16007KT P6SM -SHRA OVC007
     FM221000 VRB03KT 3SM -SHRA OVC003
     FM221300 26007KT P6SM -SHRA OVC007
     FM221700 29011KT P6SM BKN035=

USA.gov is the U.S. government's official web portal to all federal, state and local government web resources and services.